createdAt,value
2018-10-16T00:02:10.630Z,98099.09
2018-10-16T00:04:40.488Z,98102.73
2018-10-16T00:07:10.413Z,98091.02
2018-10-16T00:09:40.232Z,98091.56
2018-10-16T00:12:10.059Z,98090.44
2018-10-16T00:14:39.895Z,98091.77
2018-10-16T00:17:09.750Z,98097.91
2018-10-16T00:19:39.618Z,98092.34
2018-10-16T00:22:09.523Z,98092.80
2018-10-16T00:24:39.392Z,98089.81
2018-10-16T00:27:09.203Z,98086.78
2018-10-16T00:29:39.031Z,98090.73
2018-10-16T00:32:08.896Z,98086.43
2018-10-16T00:34:38.721Z,98083.89
2018-10-16T00:37:08.569Z,98084.05
2018-10-16T00:39:38.405Z,98087.75
2018-10-16T00:42:08.228Z,98090.41
2018-10-16T00:44:38.110Z,98089.55
2018-10-16T00:47:07.940Z,98084.72
2018-10-16T00:49:37.867Z,97924.86
2018-10-16T00:52:07.667Z,98081.33
2018-10-16T00:54:37.526Z,98074.41
2018-10-16T00:57:07.395Z,98079.34
2018-10-16T00:59:37.242Z,98067.66
2018-10-16T01:02:07.095Z,98060.79
2018-10-16T01:04:36.965Z,98066.62
2018-10-16T01:07:06.846Z,98064.53
2018-10-16T01:09:36.739Z,97701.25
2018-10-16T01:12:06.816Z,98063.76
2018-10-16T01:14:36.610Z,98067.69
2018-10-16T01:17:06.640Z,98059.42
2018-10-16T01:19:36.475Z,98064.70
2018-10-16T01:22:06.581Z,98072.16
2018-10-16T01:24:36.457Z,98069.20
2018-10-16T01:27:06.296Z,98062.78
2018-10-16T01:29:36.159Z,98062.78
2018-10-16T01:32:06.365Z,98053.73
2018-10-16T01:34:36.308Z,98048.21
2018-10-16T01:37:06.127Z,98050.09
2018-10-16T01:39:35.944Z,98049.19
2018-10-16T01:42:05.895Z,98056.23
2018-10-16T01:44:35.732Z,98091.59
2018-10-16T01:47:05.748Z,98060.16
2018-10-16T01:49:35.617Z,98050.09
2018-10-16T01:52:05.431Z,98057.08
2018-10-16T01:54:35.264Z,98055.70
2018-10-16T01:57:05.230Z,98056.15
2018-10-16T01:59:35.146Z,98048.33
2018-10-16T02:02:05.607Z,98046.25
2018-10-16T02:04:35.513Z,98043.30
2018-10-16T02:07:05.340Z,98045.21
2018-10-16T02:09:35.204Z,98049.66
2018-10-16T02:12:05.223Z,98041.92
2018-10-16T02:14:35.076Z,98044.13
2018-10-16T02:17:04.850Z,98034.29
2018-10-16T02:19:34.674Z,98037.36
2018-10-16T02:22:04.451Z,98043.08
2018-10-16T02:24:34.049Z,98043.97
2018-10-16T02:27:03.796Z,98037.02
2018-10-16T02:29:33.567Z,98037.91
2018-10-16T02:32:03.335Z,98031.78
2018-10-16T02:34:33.033Z,98041.32
2018-10-16T02:37:02.796Z,98048.69
2018-10-16T02:39:32.567Z,98046.41
2018-10-16T02:42:02.347Z,98052.54
2018-10-16T02:44:32.153Z,97945.95
2018-10-16T02:47:01.943Z,98052.20
2018-10-16T02:49:31.759Z,98052.76
2018-10-16T02:52:01.546Z,98052.38
2018-10-16T02:54:31.350Z,98048.08
2018-10-16T02:57:01.052Z,98059.50
2018-10-16T02:59:30.839Z,98062.16
2018-10-16T03:02:00.647Z,98062.19
2018-10-16T03:04:30.426Z,98066.98
2018-10-16T03:07:00.237Z,98065.60
2018-10-16T03:09:29.954Z,98063.09
2018-10-16T03:11:59.759Z,98064.91
2018-10-16T03:14:29.668Z,98055.82
2018-10-16T03:17:00.295Z,98054.58
2018-10-16T03:19:30.202Z,98054.58
2018-10-16T03:22:00.084Z,98051.65
2018-10-16T03:24:30.013Z,98046.99
2018-10-16T03:26:59.872Z,98053.59
2018-10-16T03:29:29.915Z,98050.63
2018-10-16T03:31:59.813Z,98050.27
2018-10-16T03:34:29.723Z,98049.89
2018-10-16T03:36:59.566Z,98057.31
2018-10-16T03:39:29.400Z,98056.87
2018-10-16T03:41:59.161Z,98051.20
2018-10-16T03:44:28.979Z,98052.92
2018-10-16T03:46:58.830Z,98064.27
2018-10-16T03:49:28.698Z,98063.44
2018-10-16T03:51:58.430Z,98061.71
2018-10-16T03:54:28.360Z,98056.04
2018-10-16T03:56:58.117Z,98058.65
2018-10-16T03:59:28.075Z,98063.05
2018-10-16T04:01:57.875Z,98056.52
2018-10-16T04:04:27.756Z,98057.34
2018-10-16T04:06:57.639Z,98048.67
2018-10-16T04:09:27.455Z,98049.59
2018-10-16T04:11:57.251Z,98050.13
2018-10-16T04:14:27.334Z,98043.20
2018-10-16T04:16:57.226Z,98029.75
2018-10-16T04:19:27.078Z,98029.01
2018-10-16T04:21:56.811Z,98029.98
2018-10-16T04:24:26.664Z,98033.06
2018-10-16T04:26:56.528Z,98048.80
2018-10-16T04:29:26.574Z,98057.44
2018-10-16T04:31:56.754Z,98052.58
2018-10-16T04:34:26.606Z,98058.58
2018-10-16T04:36:56.491Z,98052.47
2018-10-16T04:39:26.471Z,98049.05
2018-10-16T04:41:56.481Z,98055.69
2018-10-16T04:44:26.426Z,98063.03
2018-10-16T04:46:56.150Z,98057.81
2018-10-16T04:49:25.927Z,98051.27
2018-10-16T04:51:55.847Z,98048.61
2018-10-16T04:54:25.757Z,98045.11
2018-10-16T04:56:55.579Z,98044.56
2018-10-16T04:59:25.367Z,97968.63
2018-10-16T05:01:55.174Z,98043.10
2018-10-16T05:04:24.992Z,98038.03
2018-10-16T05:06:55.287Z,98044.30
2018-10-16T05:09:25.161Z,98046.59
2018-10-16T05:11:56.007Z,97961.21
2018-10-16T05:14:25.889Z,98050.74
2018-10-16T05:16:55.729Z,98059.08
2018-10-16T05:19:25.452Z,98075.20
2018-10-16T05:21:55.257Z,98061.70
2018-10-16T05:24:25.033Z,98065.22
2018-10-16T05:26:54.892Z,98061.75
2018-10-16T05:29:24.634Z,98066.55
2018-10-16T05:31:54.459Z,98059.52
2018-10-16T05:34:24.351Z,98063.89
2018-10-16T05:36:55.134Z,98064.70
2018-10-16T05:39:24.897Z,98071.73
2018-10-16T05:41:54.766Z,98070.45
2018-10-16T05:44:24.710Z,98076.56
2018-10-16T05:46:54.593Z,98077.31
2018-10-16T05:49:24.544Z,98076.38
2018-10-16T05:51:54.369Z,98080.13
2018-10-16T05:54:24.332Z,98079.06
2018-10-16T05:56:54.310Z,98066.22
2018-10-16T05:59:24.044Z,98073.05
2018-10-16T06:01:53.889Z,98078.59
2018-10-16T06:04:23.814Z,98072.03
2018-10-16T06:06:53.578Z,98078.88
2018-10-16T06:09:23.415Z,98080.54
2018-10-16T06:11:53.186Z,98090.01
2018-10-16T06:14:23.015Z,98095.31
2018-10-16T06:16:52.950Z,98089.30
2018-10-16T06:19:22.900Z,98086.23
2018-10-16T06:21:52.661Z,98096.33
2018-10-16T06:24:22.567Z,98095.30
2018-10-16T06:26:52.455Z,98096.37
2018-10-16T06:29:22.205Z,98096.66
2018-10-16T06:31:52.073Z,98098.60
2018-10-16T06:34:21.932Z,98100.08
2018-10-16T06:36:51.841Z,98101.59
2018-10-16T06:39:21.658Z,98110.47
2018-10-16T06:41:51.550Z,98108.09
2018-10-16T06:44:21.503Z,98106.92
2018-10-16T06:46:51.376Z,98118.45
2018-10-16T06:49:21.234Z,98117.01
2018-10-16T06:51:51.101Z,98115.56
2018-10-16T06:54:20.943Z,98121.06
2018-10-16T06:56:50.918Z,98125.33
2018-10-16T06:59:20.711Z,98127.77
2018-10-16T07:01:50.879Z,98131.41
2018-10-16T07:04:20.752Z,98137.77
2018-10-16T07:06:50.669Z,98140.71
2018-10-16T07:09:20.512Z,98141.30
2018-10-16T07:11:50.470Z,98143.83
2018-10-16T07:14:20.413Z,98148.07
2018-10-16T07:16:50.363Z,98146.10
2018-10-16T07:19:20.281Z,98152.05
2018-10-16T07:21:50.228Z,98154.58
2018-10-16T07:24:20.192Z,98153.00
2018-10-16T07:26:50.017Z,98153.30
2018-10-16T07:29:19.929Z,98166.41
2018-10-16T07:31:49.838Z,98169.44
2018-10-16T07:34:19.818Z,98163.84
2018-10-16T07:36:49.697Z,98167.22
2018-10-16T07:39:19.553Z,98162.95
2018-10-16T07:41:49.520Z,98164.55
2018-10-16T07:44:19.435Z,98159.12
2018-10-16T07:46:49.287Z,98155.40
2018-10-16T07:49:19.181Z,98163.80
2018-10-16T07:51:49.061Z,98157.55
2018-10-16T07:54:19.190Z,98153.95
2018-10-16T07:56:49.232Z,98158.08
2018-10-16T07:59:19.123Z,98159.94
2018-10-16T08:01:48.960Z,98160.04
2018-10-16T08:04:18.982Z,98155.36
2018-10-16T08:06:48.848Z,98158.16
2018-10-16T08:09:18.755Z,98156.36
2018-10-16T08:11:49.816Z,98154.30
2018-10-16T08:14:20.774Z,98145.69
2018-10-16T08:16:51.339Z,98151.16
2018-10-16T08:19:21.243Z,98151.86
2018-10-16T08:21:51.100Z,98143.27
2018-10-16T08:24:21.048Z,98143.25
2018-10-16T08:26:50.914Z,98136.64
2018-10-16T08:29:20.831Z,98137.37
2018-10-16T08:31:50.738Z,98133.14
2018-10-16T08:34:20.662Z,98133.50
2018-10-16T08:36:50.518Z,98130.59
2018-10-16T08:39:26.649Z,98121.98
2018-10-16T08:44:20.619Z,98121.13
2018-10-16T08:47:02.192Z,98121.37
2018-10-16T08:49:43.257Z,98119.34
2018-10-16T08:52:13.339Z,98131.36
2018-10-16T08:54:43.994Z,98127.94
2018-10-16T08:57:14.814Z,98129.78
2018-10-16T08:59:45.048Z,98127.34
2018-10-16T09:02:14.862Z,98120.17
2018-10-16T09:04:45.006Z,98118.11
2018-10-16T09:07:15.224Z,98115.42
2018-10-16T09:09:45.774Z,98125.13
2018-10-16T09:12:16.549Z,98129.95
2018-10-16T09:14:46.834Z,98130.12
2018-10-16T09:17:17.728Z,98131.92
2018-10-16T09:19:47.605Z,98130.47
2018-10-16T09:22:17.400Z,98129.31
2018-10-16T09:24:47.475Z,98125.97
2018-10-16T09:27:18.160Z,98124.33
2018-10-16T09:29:48.729Z,98122.92
2018-10-16T09:32:19.733Z,98128.23
2018-10-16T09:34:50.477Z,98126.89
2018-10-16T09:37:21.230Z,98126.37
2018-10-16T09:39:52.403Z,98125.25
2018-10-16T09:42:23.172Z,98123.62
2018-10-16T09:44:54.109Z,98126.13
2018-10-16T09:47:23.887Z,98125.34
2018-10-16T09:49:54.584Z,98132.19
2018-10-16T09:52:26.226Z,98124.54
2018-10-16T09:54:56.981Z,98125.31
2018-10-16T09:57:26.832Z,98116.25
2018-10-16T09:59:57.045Z,98119.19
2018-10-16T10:02:27.918Z,98118.63
2018-10-16T10:04:58.572Z,98127.20
2018-10-16T10:07:29.586Z,98120.57
2018-10-16T10:09:59.417Z,98124.14
2018-10-16T10:12:29.654Z,98118.77
2018-10-16T10:14:59.956Z,98118.16
2018-10-16T10:17:30.006Z,98120.15
2018-10-16T10:20:00.353Z,98119.66
2018-10-16T10:22:30.904Z,98111.13
2018-10-16T10:25:02.533Z,98109.72
2018-10-16T10:27:33.225Z,98110.75
2018-10-16T10:30:03.231Z,98100.97
2018-10-16T10:32:33.179Z,98110.11
2018-10-16T10:35:03.469Z,98100.45
2018-10-16T10:37:33.351Z,98099.03
2018-10-16T10:40:03.329Z,98098.94
2018-10-16T10:42:34.153Z,98101.81
2018-10-16T10:45:04.971Z,98101.52
2018-10-16T10:47:35.633Z,98105.96
2018-10-16T10:50:07.668Z,98094.33
2018-10-16T10:52:38.612Z,98099.80
2018-10-16T10:55:09.383Z,98097.55
2018-10-16T10:57:40.960Z,98096.59
2018-10-16T11:00:14.237Z,98099.81
2018-10-16T11:02:46.369Z,98097.38
2018-10-16T11:05:17.219Z,98089.38
2018-10-16T11:07:47.855Z,98090.45
2018-10-16T11:10:20.029Z,98088.64
2018-10-16T11:12:50.345Z,98087.50
2018-10-16T11:15:20.746Z,98082.25
2018-10-16T11:17:51.396Z,98083.74
2018-10-16T11:20:21.694Z,98075.48
2018-10-16T11:22:51.728Z,98081.95
2018-10-16T11:25:22.174Z,98076.34
2018-10-16T11:27:53.030Z,98077.16
2018-10-16T11:30:23.756Z,98074.42
2018-10-16T11:32:54.204Z,98069.03
2018-10-16T11:35:24.573Z,98073.21
2018-10-16T11:37:54.929Z,98072.78
2018-10-16T11:40:25.944Z,98067.20
2018-10-16T11:42:57.544Z,98064.13
2018-10-16T11:45:27.351Z,98064.72
2018-10-16T11:47:57.239Z,98063.81
2018-10-16T11:50:27.563Z,98062.88
2018-10-16T11:52:58.993Z,98070.64
2018-10-16T11:55:29.707Z,98073.96
2018-10-16T11:58:00.083Z,98071.80
2018-10-16T12:00:32.467Z,98075.36
2018-10-16T12:03:02.134Z,98076.81
2018-10-16T12:05:32.092Z,98068.17
2018-10-16T12:08:03.209Z,98065.73
2018-10-16T12:10:33.172Z,98067.31
2018-10-16T12:13:03.156Z,98062.89
2018-10-16T12:15:33.940Z,98058.80
2018-10-16T12:18:16.561Z,98059.66
2018-10-16T12:21:06.332Z,98064.55
2018-10-16T12:23:36.310Z,98068.71
2018-10-16T12:26:07.323Z,98064.47
2018-10-16T12:28:37.091Z,98067.06
2018-10-16T12:31:08.241Z,98055.60
2018-10-16T12:33:38.109Z,98063.41
2018-10-16T12:36:09.102Z,98055.02
2018-10-16T12:38:40.195Z,98055.09
2018-10-16T12:41:10.372Z,98049.06
2018-10-16T12:43:41.183Z,98054.48
2018-10-16T12:46:11.317Z,98050.52
2018-10-16T12:48:42.348Z,98052.03
2018-10-16T12:51:13.954Z,98054.80
2018-10-16T12:53:44.413Z,98056.58
2018-10-16T12:56:15.660Z,98053.85
2018-10-16T12:58:46.124Z,98053.08
2018-10-16T13:01:16.221Z,98049.45
2018-10-16T13:03:46.496Z,98047.51
2018-10-16T13:06:16.282Z,98054.86
2018-10-16T13:08:46.548Z,98053.47
2018-10-16T13:11:17.297Z,98060.23
2018-10-16T13:13:48.531Z,98056.70
2018-10-16T13:16:19.223Z,98056.77
2018-10-16T13:18:49.691Z,98061.41
2018-10-16T13:21:20.831Z,98050.59
2018-10-16T13:23:53.144Z,98056.61
2018-10-16T13:26:23.381Z,98049.92
2018-10-16T13:28:53.174Z,98054.28
2018-10-16T13:31:23.374Z,98053.58
2018-10-16T13:33:53.873Z,98047.55
2018-10-16T13:36:23.662Z,98050.85
2018-10-16T13:38:54.444Z,98056.06
2018-10-16T13:41:24.509Z,98055.36
2018-10-16T13:43:55.262Z,98054.50
2018-10-16T13:46:26.068Z,98056.48
2018-10-16T13:48:56.599Z,98066.13
2018-10-16T13:51:26.397Z,98062.55
2018-10-16T13:53:57.116Z,98061.03
2018-10-16T13:56:27.919Z,98058.66
2018-10-16T13:58:58.770Z,98064.73
2018-10-16T14:01:29.491Z,98065.13
2018-10-16T14:03:59.904Z,98063.95
2018-10-16T14:06:30.137Z,98060.91
2018-10-16T14:09:00.686Z,98064.94
2018-10-16T14:11:31.608Z,98063.63
2018-10-16T14:14:03.462Z,98063.55
2018-10-16T14:16:34.349Z,98061.98
2018-10-16T14:19:05.421Z,98056.09
2018-10-16T14:21:35.307Z,98052.56
2018-10-16T14:24:05.492Z,98056.40
2018-10-16T14:26:36.131Z,98057.00
2018-10-16T14:29:06.978Z,98057.51
2018-10-16T14:31:37.660Z,98081.19
2018-10-16T14:34:08.029Z,98061.29
2018-10-16T14:36:37.849Z,98052.69
2018-10-16T14:39:09.977Z,98051.52
2018-10-16T14:41:39.802Z,98060.69
2018-10-16T14:44:10.787Z,98060.58
2018-10-16T14:46:41.778Z,98051.83
2018-10-16T14:49:12.874Z,98053.69
2018-10-16T14:51:43.498Z,98054.34
2018-10-16T14:54:13.959Z,98056.30
2018-10-16T14:56:44.200Z,98055.70
2018-10-16T14:59:14.006Z,98048.74
2018-10-16T15:01:43.794Z,98046.64
2018-10-16T15:04:14.038Z,98050.17
2018-10-16T15:06:44.286Z,98054.14
2018-10-16T15:09:15.161Z,98052.81
2018-10-16T15:11:45.749Z,98054.67
2018-10-16T15:14:17.264Z,98050.84
2018-10-16T15:16:49.120Z,98055.59
2018-10-16T15:19:19.552Z,98052.67
2018-10-16T15:21:50.886Z,98056.70
2018-10-16T15:24:22.577Z,98054.77
2018-10-16T15:26:53.822Z,98056.73
2018-10-16T15:29:24.146Z,98052.84
2018-10-16T15:31:56.884Z,98063.97
2018-10-16T15:34:29.258Z,98060.55
2018-10-16T15:37:00.200Z,98058.90
2018-10-16T15:39:30.869Z,98060.22
2018-10-16T15:42:02.226Z,98065.53
2018-10-16T15:44:32.647Z,98068.25
2018-10-16T15:47:03.779Z,98071.41
2018-10-16T15:49:33.539Z,98075.94
2018-10-16T15:52:03.816Z,98076.64
2018-10-16T15:54:33.553Z,98076.95
2018-10-16T15:57:04.066Z,98074.70
2018-10-16T15:59:33.825Z,98082.52
2018-10-16T16:02:04.580Z,98084.60
2018-10-16T16:04:34.877Z,98087.10
2018-10-16T16:07:06.052Z,98089.17
2018-10-16T16:09:35.919Z,98087.30
2018-10-16T16:12:07.645Z,98085.91
2018-10-16T16:14:37.408Z,98091.03
2018-10-16T16:17:07.315Z,98090.84
2018-10-16T16:19:37.757Z,98090.20
2018-10-16T16:22:08.700Z,98091.27
2018-10-16T16:24:39.730Z,98094.77
2018-10-16T16:27:09.794Z,98095.32
2018-10-16T16:29:40.518Z,98091.77
2018-10-16T16:32:10.683Z,98093.39
2018-10-16T16:34:41.023Z,98087.50
2018-10-16T16:37:11.907Z,98097.12
2018-10-16T16:39:43.333Z,98100.45
2018-10-16T16:42:13.577Z,98096.77
2018-10-16T16:44:44.136Z,98097.37
2018-10-16T16:47:14.336Z,98095.00
2018-10-16T16:49:44.664Z,98091.30
2018-10-16T16:52:14.795Z,98094.59
2018-10-16T16:54:45.180Z,98098.29
2018-10-16T16:57:15.893Z,98102.84
2018-10-16T16:59:46.096Z,98100.53
2018-10-16T17:02:15.937Z,98107.77
2018-10-16T17:04:46.916Z,98105.33
2018-10-16T17:07:17.358Z,98095.82
2018-10-16T17:09:47.519Z,98102.59
2018-10-16T17:12:19.361Z,98114.07
2018-10-16T17:14:49.833Z,98112.81
2018-10-16T17:17:20.335Z,98111.57
2018-10-16T17:19:51.270Z,98120.89
2018-10-16T17:22:21.133Z,98117.93
2018-10-16T17:24:53.449Z,98113.28
2018-10-16T17:27:24.026Z,98113.41
2018-10-16T17:29:53.897Z,98117.94
2018-10-16T17:32:24.019Z,98125.50
2018-10-16T17:34:54.819Z,98122.58
2018-10-16T17:37:25.495Z,98121.33
2018-10-16T17:39:56.194Z,98123.22
2018-10-16T17:42:26.466Z,98126.94
2018-10-16T17:44:58.017Z,98129.16
2018-10-16T17:47:28.124Z,98135.33
2018-10-16T17:49:58.315Z,98132.30
2018-10-16T17:52:28.399Z,98135.91
2018-10-16T17:54:58.660Z,98132.75
2018-10-16T17:57:29.480Z,98124.52
2018-10-16T17:59:59.643Z,98130.83
2018-10-16T18:02:30.065Z,98141.09
2018-10-16T18:05:00.607Z,98143.80
2018-10-16T18:07:30.713Z,98154.30
2018-10-16T18:10:02.146Z,98145.56
2018-10-16T18:12:32.548Z,98138.75
2018-10-16T18:15:05.739Z,98134.23
2018-10-16T18:17:36.344Z,98127.22
2018-10-16T18:20:08.562Z,98127.90
2018-10-16T18:22:39.191Z,98135.88
2018-10-16T18:25:10.699Z,98142.40
2018-10-16T18:27:41.497Z,98144.63
2018-10-16T18:30:12.589Z,98148.17
2018-10-16T18:32:43.565Z,98143.92
2018-10-16T18:35:13.931Z,98149.23
2018-10-16T18:37:44.795Z,98150.74
2018-10-16T18:40:15.446Z,98146.95
2018-10-16T18:42:45.766Z,98115.16
2018-10-16T18:45:17.333Z,98153.22
2018-10-16T18:47:48.097Z,98151.45
2018-10-16T18:50:19.053Z,98148.06
2018-10-16T18:52:50.533Z,98151.95
2018-10-16T18:55:21.648Z,98151.16
2018-10-16T18:57:52.326Z,98152.97
2018-10-16T19:00:25.000Z,98162.56
2018-10-16T19:02:55.274Z,98158.52
2018-10-16T19:05:25.780Z,98157.66
2018-10-16T19:07:56.988Z,98154.94
2018-10-16T19:10:27.418Z,98152.31
2018-10-16T19:12:58.211Z,98158.92
2018-10-16T19:15:28.576Z,98164.23
2018-10-16T19:18:00.154Z,98157.78
2018-10-16T19:20:30.539Z,98157.52
2018-10-16T19:23:01.359Z,98163.27
2018-10-16T19:25:31.786Z,98156.70
2018-10-16T19:28:02.636Z,98163.27
2018-10-16T19:30:33.738Z,98166.86
2018-10-16T19:33:05.851Z,98169.49
2018-10-16T19:35:36.244Z,98165.23
2018-10-16T19:38:07.003Z,98167.16
2018-10-16T19:40:37.299Z,98162.95
2018-10-16T19:43:08.270Z,98163.50
2018-10-16T19:45:39.018Z,98168.02
2018-10-16T19:48:10.229Z,98172.19
2018-10-16T19:50:41.137Z,98170.52
2018-10-16T19:53:11.647Z,98163.95
2018-10-16T19:55:45.048Z,98167.08
2018-10-16T19:58:17.089Z,98161.43
2018-10-16T20:00:48.669Z,98156.22
2018-10-16T20:03:19.525Z,98165.86
2018-10-16T20:05:51.895Z,98166.81
2018-10-16T20:08:23.577Z,98159.88
2018-10-16T20:10:55.007Z,98157.30
2018-10-16T20:13:26.111Z,98161.87
2018-10-16T20:15:56.633Z,98164.16
2018-10-16T20:18:29.267Z,98161.58
2018-10-16T20:21:00.136Z,98162.90
2018-10-16T20:23:32.065Z,98159.82
2018-10-16T20:26:02.545Z,98157.16
2018-10-16T20:28:33.281Z,98160.31
2018-10-16T20:31:03.660Z,98159.45
2018-10-16T20:33:33.795Z,98157.73
2018-10-16T20:36:04.258Z,98161.71
2018-10-16T20:38:35.704Z,98154.75
2018-10-16T20:41:05.989Z,98151.31
2018-10-16T20:43:36.597Z,98150.04
2018-10-16T20:46:07.295Z,98144.88
2018-10-16T20:48:37.869Z,98142.75
2018-10-16T20:51:07.620Z,98146.31
2018-10-16T20:53:38.513Z,98145.91
2018-10-16T20:56:09.266Z,98152.01
2018-10-16T20:58:39.630Z,98148.53
2018-10-16T21:01:10.544Z,98137.67
2018-10-16T21:03:40.780Z,98132.02
2018-10-16T21:06:11.505Z,98126.41
2018-10-16T21:08:41.275Z,98133.86
2018-10-16T21:11:11.320Z,98136.56
2018-10-16T21:13:41.414Z,98139.22
2018-10-16T21:16:13.010Z,98137.55
2018-10-16T21:18:43.086Z,98137.95
2018-10-16T21:21:14.464Z,98134.06
2018-10-16T21:23:44.633Z,98135.83
2018-10-16T21:26:14.494Z,98135.41
2018-10-16T21:28:45.137Z,98138.11
2018-10-16T21:31:15.949Z,98131.98
2018-10-16T21:33:45.986Z,98129.36
2018-10-16T21:36:15.987Z,98136.31
2018-10-16T21:38:46.313Z,98132.88
2018-10-16T21:41:17.971Z,98129.80
2018-10-16T21:43:48.453Z,98132.17
2018-10-16T21:46:18.157Z,98124.80
2018-10-16T21:48:48.361Z,98120.05
2018-10-16T21:51:18.901Z,98123.98
2018-10-16T21:53:48.902Z,98118.81
2018-10-16T21:56:19.776Z,98127.98
2018-10-16T21:58:50.099Z,98126.34
2018-10-16T22:01:25.343Z,98130.38
2018-10-16T22:03:55.933Z,98128.21
2018-10-16T22:06:26.477Z,98123.88
2018-10-16T22:08:56.491Z,98123.88
2018-10-16T22:11:27.110Z,98116.02
2018-10-16T22:13:56.866Z,98115.64
2018-10-16T22:16:28.182Z,98117.40
2018-10-16T22:18:58.251Z,98114.86
2018-10-16T22:21:28.182Z,98109.25
2018-10-16T22:23:57.966Z,98114.14
2018-10-16T22:26:27.745Z,98115.48
2018-10-16T22:28:58.092Z,98125.58
2018-10-16T22:31:27.924Z,98119.97
2018-10-16T22:33:58.178Z,98128.20
2018-10-16T22:36:28.341Z,98125.55
2018-10-16T22:38:58.545Z,98123.72
2018-10-16T22:41:28.377Z,98126.67
2018-10-16T22:43:59.133Z,98121.85
2018-10-16T22:46:29.569Z,98123.98
2018-10-16T22:49:00.370Z,98121.36
2018-10-16T22:51:31.138Z,98120.43
2018-10-16T22:54:01.301Z,98120.44
2018-10-16T22:56:31.033Z,98120.06
2018-10-16T22:59:01.779Z,98120.06
2018-10-16T23:01:32.940Z,98116.55
2018-10-16T23:04:03.258Z,98120.99
2018-10-16T23:06:34.377Z,98112.27
2018-10-16T23:09:05.013Z,98120.61
2018-10-16T23:11:35.295Z,98118.45
2018-10-16T23:14:05.409Z,98117.58
2018-10-16T23:16:36.730Z,98115.00
2018-10-16T23:19:06.940Z,98120.23
2018-10-16T23:21:37.046Z,98118.93
2018-10-16T23:24:07.951Z,98118.55
2018-10-16T23:26:38.443Z,98117.66
2018-10-16T23:29:09.194Z,98108.01
2018-10-16T23:31:40.199Z,98113.25
2018-10-16T23:34:10.440Z,98112.34
2018-10-16T23:36:40.852Z,98114.11
2018-10-16T23:39:13.673Z,98108.83
2018-10-16T23:41:43.946Z,98105.73
2018-10-16T23:44:14.500Z,98104.76
2018-10-16T23:46:44.911Z,98100.80
2018-10-16T23:49:15.055Z,98102.51
2018-10-16T23:51:44.783Z,98105.54
2018-10-16T23:54:14.940Z,98116.80
2018-10-16T23:56:45.256Z,98115.78
2018-10-16T23:59:16.281Z,98118.33
